Racecast

David Jordan

Temperance Bedford (MI) · 12 · SECMI D1MONROE · Compare head to head

Athlete rating 104.9 2017 TF season
Best race 121.2 XC
Races 79
Seasons 8 2010 — 2017

RankedNation #81197·MI #3588·MI D1 #1995·SEC #211·Team #40 ?

Rating scale ?

Cross Country

2016 XC 115.1

Temperance Bedford (MI) · Grade 12

Date Meet Event Result Place Rating Difficulty PR/SR Flags
2016-10-29 Lake Erie Metro Park OFFICIAL 5000m 19:49.9 47th · 6th on team 113.0 +0.055 CSR
2016-10-20 Hudson Mills Metropark - OFFICIAL 5000m 19:14.4 69th · 6th on team 113.8 +0.036
2016-10-15 Hudson Mills Metropark - OFFICIAL 5000m 18:15.4 9th · 2nd on team 121.2 +0.036 ★PR ★CR ★R SR CSR RSR
2016-10-08 Portage West MS 5000m 18:34 109th · 4th on team 118.6 +0.038 ★CR CSR
2016-10-01 Pearson's Metro Park 5000m 18:31.6 3rd · 2nd on team 111.7 -0.022 PR ★CR SR CSR
2016-09-27 Pioneer HS 5000m 18:57.5 22nd · 3rd on team 120.5 +0.067 ★CR R SR CSR RSR
2016-09-23 Ella Sharp Park OFFICIAL 5000m 19:17.8 36th · 6th on team 114.7 +0.038 ★CR CSR
2016-09-13 Heritage Park (Adrian) OFFICIAL 5000m 19:17.1 30th · 3rd on team 119.5 +0.084 ★CR SR CSR RSR
2016-09-10 Hedges Boyer Park 5000m 19:52.7 173rd · 5th on team 103.5 -0.036 ★CR SR CSR
2016-09-02 Oakland University 4000m 15:17.7 93rd · 10th on team 114.2 +0.054 ★PR ★CR SR CSR
2016-08-25 Heritage Park (Adrian) OFFICIAL 5000m 20:00.6 45th · 6th on team 115.1 +0.084 SR CSR RSR

2015 XC 114.4

Temperance Bedford (MI) · Grade 11

Date Meet Event Result Place Rating Difficulty PR/SR Flags
2015-10-31 Lake Erie Metro Park OFFICIAL 5000m 19:48.8 56th · 7th on team 112.2 +0.055 ★CR CSR
2015-10-22 Hudson Mills Metropark - OFFICIAL 5000m 19:23.6 84th · 5th on team 112.8 +0.036
2015-10-17 Hudson Mills Metropark - OFFICIAL 5000m 18:36.1 39th · 4th on team 117.4 +0.036 PR CR SR CSR RSR
2015-10-03 Pearson's Metro Park 5000m 19:02.1 1st · 1st on team 108.6 -0.022 PR CR SR CSR
2015-09-29 Indian Creek OFFICIAL 5000m 19:08.9 38th · 3rd on team 114.6 +0.039 ★CR CSR
2015-09-19 Springfield Oaks County Park OFFICIAL 5000m 19:20 23rd · 5th on team 117.1 +0.067 ★CR CSR
2015-09-10 Munson Park 5000m 19:03.5 27th · 3rd on team 117.1 +0.054 PR ★CR SR CSR RSR
2015-09-04 Hillsdale College 5000m 19:29.1 16th · 11th on team 116.0 +0.070 PR ★CR SR CSR RSR
2015-08-27 Heritage Park (Adrian) OFFICIAL 5000m 19:40.3 54th · 11th on team 114.3 +0.084 PR CR SR CSR RSR

2014 XC 107.6

Temperance Bedford (MI) · Grade 10

Date Meet Event Result Place Rating Difficulty PR/SR Flags
2014-10-25 Lake Erie Metro Park OFFICIAL 5000m 20:01.5 52nd · 4th on team 112.0 +0.055 CR CSR
2014-10-04 Portage West MS 5000m 19:58 239th · 6th on team 109.8 +0.038 PR CR SR CSR
2014-09-23 Huron Meadows Metropark OFFICIAL 5000m 20:03.1 54th · 9th on team 112.2 +0.052 PR ★CR SR CSR RSR
2014-09-20 Ella Sharp Park OFFICIAL 5000m 20:19.6 139th · 5th on team 108.2 +0.038 CR CSR RSR
2014-09-09 Hudson Mills Metropark - OFFICIAL 5000m 21:24.7 96th · 3rd on team 103.0 +0.036 CR CSR RSR
2014-09-06 Hedges Boyer Park 5000m 20:10.5 219th · 2nd on team 100.5 -0.036 PR CR SR CSR RSR

2013 XC 102.2

Temperance Bedford (MI) · Grade 9

Date Meet Event Result Place Rating Difficulty PR/SR Flags
2013-10-26 Lake Erie Metro Park OFFICIAL 5000m 20:24 65th · 10th on team 110.3 +0.055 PR CR SR CSR RSR
2013-10-05 Portage West MS 5000m 21:39 350th · 9th on team 102.6 +0.038 CR CSR
2013-09-28 Pearson's Metro Park 5000m 21:00.4 96th · 11th on team 99.5 -0.022 PR CR SR CSR
2013-09-10 Pioneer HS 5000m 21:51.6 78th · 3rd on team 103.8 +0.067 CR CSR RSR
2013-09-07 Hedges Boyer Park 5000m 21:50.4 422nd · 3rd on team 94.8 -0.036 PR CR SR CSR RSR

2012 XC 99.1

Temperance Bedford (MI) · Grade 8

Date Meet Event Result Place Rating Difficulty PR/SR Flags
2012-10-20 Hudson Mills Metropark - OFFICIAL 2816m 14:03.1 61st · 4th on team 101.8 ★PR ★CR SR CSR
2012-10-06 Portage West MS 1931m 11:14.6 46th · 8th on team 85.3 ★PR ★CR SR CSR
2012-09-29 Pearson's Metro Park 2500m 14:49 82nd · 12th on team 85.2 ★CR SR CSR
2012-09-26 Hudson Mills Metropark - OFFICIAL 3200m 15:53.6 70th · 11th on team 107.2 +0.062 ★CR CSR
2012-09-12 Tecumseh HS 2816m 15:25.4 72nd · 12th on team 93.4 PR ★CR SR CSR
2012-09-08 Tiffin 3200m 14:40.5 10th · 7th on team 108.1 -0.045 ★CR CSR
2012-08-27 Race Way Park 3200m 14:27.4 9th · 9th on team 113.0 +0.005 ★PR ★CR SR CSR RSR

2011 XC 94.0

Temperance Bedford (MI) · Grade 7

Date Meet Event Result Place Rating Difficulty PR/SR Flags
2011-10-22 Willow Metropark OFFICIAL 2655m 15:53.7 118th · 8th on team 84.6 ★PR ★CR SR CSR
2011-10-15 Munson Park 3200m 17:17 42nd · 3rd on team 99.6 +0.034
2011-10-12 Munson Park 3200m 16:18 90th · 8th on team 103.0 +0.034 ★CR CSR
2011-10-08 Portage West MS 2172m 12:37.6 468th · 7th on team 88.3 ★PR ★CR SR CSR
2011-09-16 Forest Akers East Golf Course 3200m 15:28 167th · 5th on team 110.0 +0.062 PR ★CR SR CSR RSR
2011-09-14 Rolling Hills 2816m 16:54 84th · 8th on team 85.8 PR ★CR SR CSR
2011-09-10 Hedges Boyer Park 3200m 17:07 222nd · 1st on team 86.4 -0.089 ★CR SR CSR RSR

2010 XC 107.1

Temperance Bedford (MI) · Grade 8

Date Meet Event Result Place Rating Difficulty PR/SR Flags
2010-10-23 Willow Metropark OFFICIAL 3218m 14:02.1 9th · 1st on team 119.5 +0.027 ★PR ★CR SR CSR
2010-10-09 Portage West MS 2500m 11:03.6 256th · 6th on team 120.4 +0.039 ★PR ★CR R SR CSR RSR
2010-09-17 Forest Akers East Golf Course 3200m 15:30 142nd · 9th on team 112.4 +0.062 PR CR R SR CSR RSR
2010-09-11 Hedges Boyer Park 2253m 14:36.2 234th · 7th on team 76.0 ★PR ★CR R SR CSR RSR

Track & Field

2017 TF 102.1

Temperance Bedford (MI) · Grade 12

Date Meet Event Result Place Rating Difficulty PR/SR Flags
2017-05-17 Eagle Boys Invite 1600m 5:31.94 86th · 4th on team 103.5 -0.033
2017-05-17 Eagle Boys Invite 800m 2:36.84 64th · 3rd on team 97.2 -0.033
2017-04-25 SEC Red: Bedford @ Skyline 1600m 5:21.92 14th · 6th on team 105.7 -0.033 SR RSR
2017-04-25 SEC Red: Bedford @ Skyline 800m 2:30.35 12th · 8th on team 100.5 -0.033 SR
2017-03-28 SEC Red: Bedford @ Pioneer 3200m 11:56.4 9th · 2nd on team 103.7 -0.028 SR RSR

2016 TF 104.7

Temperance Bedford (MI) · Grade 11

Date Meet Event Result Place Rating Difficulty PR/SR Flags
2016-05-18 Eagle Boys Invitational 800m 2:28.5 42nd · 3rd on team 101.5 -0.033 ★PR SR
2016-05-18 Eagle Boys Invitational 1600m 5:11.57 54th · 2nd on team 108.9 -0.033 ★PR SR RSR
2016-05-03 SEC Tri: Huron/Skyline @ Bedford 1600m 5:19.15 18th · 11th on team 105.9 -0.033 PR SR RSR
2016-05-03 SEC Tri: Huron/Skyline @ Bedford 3200m 11:41.77 8th · 4th on team 104.7 -0.033
2016-04-26 Bedford @ Monroe 3200m 11:48 9th · 4th on team 104.0 -0.032
2016-04-26 Bedford @ Monroe 400m 1:01.74 4th · 3rd on team -0.032 ★PR SR
2016-04-19 Saline @ Bedford 3200m 11:40.33 8th · 2nd on team 105.5 -0.033 ★PR SR RSR
2016-04-12 SEC: Bedford @ Pioneer 1600m 5:33.67 18th · 7th on team 102.5 -0.028 SR RSR

2015 TF 101.2

Temperance Bedford (MI) · Grade 10

Date Meet Event Result Place Rating Difficulty PR/SR Flags
2015-05-13 Eagle Boys JV Invitational 800m 2:32.06 44th · 2nd on team 99.6 -0.033 PR SR
2015-05-13 Eagle Boys JV Invitational 1600m 5:40.99 103rd · 2nd on team 100.2 -0.033
2015-05-13 Eagle Boys JV Invitational 3200m 12:01.93 27th · 2nd on team 101.8 -0.033
2015-05-12 SEC: Bedford @ Huron 3200m 11:51.1 2nd · 1st on team 104.4 -0.034 PR SR RSR
2015-05-05 SEC Dual: Bedford at Monroe 800m 2:35.2 3rd · 3rd on team 97.5 -0.032 SR
2015-05-05 SEC Dual: Bedford at Monroe 1600m 5:33.1 4th · 4th on team 102.6 -0.032 SR
2015-04-28 SEC: Skyline @ Bedford 3200m 11:59 8th · 4th on team 102.8 -0.033 SR RSR
2015-04-21 SEC: Bedford @ Pioneer 800m 2:57.75 16th · 6th on team -0.028 SR
2015-04-21 SEC: Bedford @ Pioneer 1600m 5:44 17th · 3rd on team 100.9 -0.028 SR RSR

2014 TF 100.9

Temperance Bedford (MI) · Grade 9

Date Meet Event Result Place Rating Difficulty PR/SR Flags
2014-05-14 Eagle Boys JV Invitational 3200m 11:53.05 23rd · 1st on team 102.8 -0.033 PR SR RSR
2014-05-06 Saline Quad 1600m 5:36.96 20th · 5th on team 100.2 -0.042
2014-04-30 St. Francis Freshman Invite 3200m 12:14 1st · 1st on team 99.6 -0.043 PR SR
2014-04-17 Springfield Invitational 3200m 12:18.22 15th · 2nd on team 100.4 -0.029
2014-04-10 Whitmer Freshman Invitational 3200m 12:14.1 1st · 1st on team 101.0 -0.040 PR SR
2014-04-03 SEC Dual: Huron @ Bedford 800m 2:32.5 5th · 5th on team 99.2 -0.033 PR SR RSR
2014-04-03 SEC Dual: Huron @ Bedford 1600m 5:33 3rd · 3rd on team 102.8 -0.033 PR SR RSR

2013 TF 108.0

Temperance Bedford (MI) · Grade 8

Date Meet Event Result Place Rating Difficulty PR/SR Flags
2013-05-10 Saline MS Hornet Relays 1600m 6:07.75 6th · 1st on team 108.0 -0.042 PR SR RSR